createdAt,value
2022-08-04T00:00:32.114Z,99592.91
2022-08-04T00:03:13.121Z,99593.75
2022-08-04T00:05:54.267Z,99586.09
2022-08-04T00:08:32.141Z,99594.66
2022-08-04T00:11:02.733Z,99591.78
2022-08-04T00:13:59.715Z,99585.72
2022-08-04T00:16:32.809Z,99588.81
2022-08-04T00:19:09.993Z,99589.41
2022-08-04T00:21:40.949Z,99584.69
2022-08-04T00:24:11.745Z,99586.34
2022-08-04T00:26:42.738Z,99583.13
2022-08-04T00:29:11.695Z,99588.41
2022-08-04T00:31:54.891Z,99589.88
2022-08-04T00:34:27.732Z,99586.28
2022-08-04T00:36:57.376Z,99591.00
2022-08-04T00:39:25.827Z,99584.16
2022-08-04T00:42:14.544Z,99589.91
2022-08-04T00:44:53.738Z,99590.75
2022-08-04T00:47:34.333Z,99586.44
2022-08-04T00:50:09.401Z,99585.72
2022-08-04T00:52:46.331Z,99588.91
2022-08-04T00:55:26.839Z,99584.66
2022-08-04T00:58:14.130Z,99588.72
2022-08-04T01:00:46.166Z,99582.16
2022-08-04T01:03:19.992Z,99585.06
2022-08-04T01:05:56.565Z,99588.34
2022-08-04T01:08:56.700Z,99589.09
2022-08-04T01:11:57.680Z,99584.06
2022-08-04T01:14:47.950Z,99590.38
2022-08-04T01:17:22.176Z,99594.88
2022-08-04T01:20:06.833Z,99590.03
2022-08-04T01:23:04.753Z,99586.28
2022-08-04T01:26:41.965Z,99596.31
2022-08-04T01:29:06.198Z,99593.28
2022-08-04T01:31:44.161Z,99587.47
2022-08-04T01:34:14.475Z,99588.38
2022-08-04T01:36:50.047Z,99587.53
2022-08-04T01:39:36.393Z,99587.00
2022-08-04T01:42:05.812Z,99591.31
2022-08-04T01:44:41.611Z,99593.53
2022-08-04T01:47:11.106Z,99591.50
2022-08-04T01:49:41.091Z,99586.13
2022-08-04T01:52:11.289Z,99591.41
2022-08-04T01:54:43.011Z,99591.66
2022-08-04T01:57:37.713Z,99590.47
2022-08-04T02:00:02.224Z,99584.22
2022-08-04T02:02:32.461Z,99590.81
2022-08-04T02:05:00.904Z,99591.78
2022-08-04T02:07:52.831Z,99588.81
2022-08-04T02:10:28.536Z,99588.31
2022-08-04T02:13:09.186Z,99580.81
2022-08-04T02:15:45.064Z,99589.13
2022-08-04T02:18:19.924Z,99585.34
2022-08-04T02:20:50.865Z,99583.25
2022-08-04T02:23:26.578Z,99577.94
2022-08-04T02:25:58.372Z,99578.47
2022-08-04T02:28:34.005Z,99574.94
2022-08-04T02:31:16.912Z,99577.25
2022-08-04T02:33:47.071Z,99572.16
2022-08-04T02:36:22.496Z,99573.88
2022-08-04T02:38:57.009Z,99576.75
2022-08-04T02:41:27.477Z,99572.47
2022-08-04T02:44:00.936Z,99568.72
2022-08-04T02:46:31.419Z,99571.09
2022-08-04T02:48:59.951Z,99565.97
2022-08-04T02:51:30.564Z,99564.94
2022-08-04T02:53:59.901Z,99572.31
2022-08-04T02:56:30.601Z,99569.94
2022-08-04T02:59:01.129Z,99565.06
2022-08-04T03:01:31.627Z,99563.03
2022-08-04T03:04:22.112Z,99563.56
2022-08-04T03:07:26.526Z,99564.22
2022-08-04T03:10:43.008Z,99563.78
2022-08-04T03:14:05.216Z,99563.16
2022-08-04T03:17:02.395Z,99562.38
2022-08-04T03:20:09.272Z,99566.31
2022-08-04T03:23:14.195Z,99564.00
2022-08-04T03:26:21.954Z,99559.59
2022-08-04T03:29:33.181Z,99554.47
2022-08-04T03:32:30.394Z,99564.31
2022-08-04T03:35:22.943Z,99559.88
2022-08-04T03:38:11.784Z,99560.47
2022-08-04T03:41:10.052Z,99563.59
2022-08-04T03:44:15.637Z,99565.81
2022-08-04T03:47:09.279Z,99559.16
2022-08-04T03:50:10.351Z,99571.28
2022-08-04T03:53:09.568Z,99572.56
2022-08-04T03:55:46.449Z,99569.91
2022-08-04T03:58:44.974Z,99569.91
2022-08-04T04:01:25.559Z,99569.63
2022-08-04T04:04:09.689Z,99564.78
2022-08-04T04:07:04.303Z,99572.31
2022-08-04T04:10:07.506Z,99571.34
2022-08-04T04:12:53.763Z,99568.16
2022-08-04T04:15:38.990Z,99570.69
2022-08-04T04:18:18.089Z,99564.47
2022-08-04T04:21:00.281Z,99566.44
2022-08-04T04:23:51.834Z,99577.75
2022-08-04T04:26:45.819Z,99574.88
2022-08-04T04:29:29.738Z,99575.59
2022-08-04T04:32:06.764Z,99584.16
2022-08-04T04:34:46.394Z,99579.91
2022-08-04T04:37:38.603Z,99587.56
2022-08-04T04:40:27.953Z,99588.66
2022-08-04T04:43:18.196Z,99589.63
2022-08-04T04:45:53.021Z,99591.28
2022-08-04T04:48:31.010Z,99599.78
2022-08-04T04:51:07.489Z,99600.47
2022-08-04T04:53:44.481Z,99593.44
2022-08-04T04:56:19.217Z,99601.28
2022-08-04T04:58:48.080Z,99597.97
2022-08-04T05:01:31.925Z,99608.88
2022-08-04T05:04:22.822Z,99606.72
2022-08-04T05:07:05.508Z,99606.78
2022-08-04T05:09:43.642Z,99607.38
2022-08-04T05:14:31.348Z,99608.50
2022-08-04T05:15:15.858Z,99609.31
2022-08-04T05:17:50.974Z,99605.44
2022-08-04T05:20:24.157Z,99621.22
2022-08-04T05:22:56.595Z,99608.28
2022-08-04T05:25:27.978Z,99623.81
2022-08-04T05:28:02.136Z,99619.44
2022-08-04T05:30:32.168Z,99611.34
2022-08-04T05:33:06.198Z,99620.50
2022-08-04T05:35:47.883Z,99620.06
2022-08-04T05:38:29.089Z,99623.78
2022-08-04T05:40:59.284Z,99622.81
2022-08-04T05:43:28.988Z,99623.88
2022-08-04T05:45:58.439Z,99616.75
2022-08-04T05:48:26.913Z,99624.63
2022-08-04T05:51:00.576Z,99623.63
2022-08-04T05:53:29.693Z,99626.53
2022-08-04T05:55:59.650Z,99634.06
2022-08-04T05:58:31.043Z,99631.31
2022-08-04T06:01:00.151Z,99626.81
2022-08-04T06:03:28.891Z,99627.88
2022-08-04T06:06:02.420Z,99637.00
2022-08-04T06:08:31.011Z,99632.50
2022-08-04T06:11:00.818Z,99641.78
2022-08-04T06:13:48.056Z,99639.22
2022-08-04T06:16:28.535Z,99641.72
2022-08-04T06:20:02.865Z,99640.97
2022-08-04T06:21:51.663Z,99644.00
2022-08-04T06:24:26.791Z,99645.44
2022-08-04T06:27:00.161Z,99643.31
2022-08-04T06:29:51.250Z,99652.06
2022-08-04T06:32:33.624Z,99636.09
2022-08-04T06:35:06.922Z,99631.41
2022-08-04T06:37:41.869Z,99644.09
2022-08-04T06:40:29.845Z,99643.75
2022-08-04T06:43:01.309Z,99633.13
2022-08-04T06:45:31.037Z,99634.19
2022-08-04T06:47:59.934Z,99638.25
2022-08-04T06:51:28.021Z,99638.63
2022-08-04T06:53:21.265Z,99633.06
2022-08-04T06:55:51.028Z,99633.28
2022-08-04T06:58:20.634Z,99631.97
2022-08-04T07:00:50.795Z,99625.78
2022-08-04T07:03:21.834Z,99627.13
2022-08-04T07:05:50.810Z,99633.88
2022-08-04T07:08:19.433Z,99634.94
2022-08-04T07:10:51.275Z,99625.19
2022-08-04T07:13:20.239Z,99625.22
2022-08-04T07:15:50.401Z,99635.44
2022-08-04T07:18:20.054Z,99633.75
2022-08-04T07:20:48.948Z,99622.09
2022-08-04T07:23:19.956Z,99619.94
2022-08-04T07:26:12.450Z,99622.91
2022-08-04T07:28:44.151Z,99629.91
2022-08-04T07:31:34.379Z,99626.03
2022-08-04T07:34:17.659Z,99629.41
2022-08-04T07:36:55.584Z,99620.53
2022-08-04T07:39:47.689Z,99624.56
2022-08-04T07:42:21.339Z,99627.78
2022-08-04T07:44:50.006Z,99619.09
2022-08-04T07:47:25.306Z,99619.69
2022-08-04T07:49:58.004Z,99618.53
2022-08-04T07:52:27.382Z,99608.84
2022-08-04T07:54:56.584Z,99618.53
2022-08-04T07:57:40.432Z,99620.91
2022-08-04T08:00:11.696Z,99620.59
2022-08-04T08:02:41.488Z,99612.38
2022-08-04T08:05:11.617Z,99616.63
2022-08-04T08:07:50.947Z,99624.03
2022-08-04T08:10:28.969Z,99613.09
2022-08-04T08:12:59.583Z,99615.03
2022-08-04T08:15:31.405Z,99624.94
2022-08-04T08:18:01.257Z,99623.41
2022-08-04T08:20:31.963Z,99625.72
2022-08-04T08:23:01.752Z,99618.72
2022-08-04T08:25:31.566Z,99618.50
2022-08-04T08:28:04.737Z,99620.38
2022-08-04T08:30:34.346Z,99611.84
2022-08-04T08:33:07.289Z,99614.97
2022-08-04T08:35:54.217Z,99612.34
2022-08-04T08:38:35.184Z,99606.34
2022-08-04T08:41:25.190Z,99613.72
2022-08-04T08:44:07.659Z,99606.44
2022-08-04T08:46:51.386Z,99613.91
2022-08-04T08:50:04.460Z,99609.09
2022-08-04T08:52:56.439Z,99617.28
2022-08-04T08:55:38.419Z,99609.50
2022-08-04T08:58:22.008Z,99615.63
2022-08-04T09:01:01.242Z,99608.38
2022-08-04T09:03:43.350Z,99602.69
2022-08-04T09:06:33.861Z,99600.72
2022-08-04T09:09:10.477Z,99606.28
2022-08-04T09:11:41.509Z,99606.63
2022-08-04T09:14:16.552Z,99606.03
2022-08-04T09:16:50.630Z,99601.78
2022-08-04T09:19:38.041Z,99605.16
2022-08-04T09:22:13.103Z,99602.59
2022-08-04T09:24:49.828Z,99603.19
2022-08-04T09:27:20.787Z,99596.72
2022-08-04T09:29:54.065Z,99594.56
2022-08-04T09:32:38.689Z,99594.13
2022-08-04T09:35:19.140Z,99591.72
2022-08-04T09:37:56.859Z,99581.09
2022-08-04T09:40:52.504Z,99583.91
2022-08-04T09:44:43.072Z,99577.13
2022-08-04T09:46:22.446Z,99582.94
2022-08-04T09:48:56.348Z,99571.94
2022-08-04T09:51:57.316Z,99575.84
2022-08-04T09:54:38.277Z,99570.38
2022-08-04T09:57:15.546Z,99568.53
2022-08-04T09:59:50.099Z,99567.13
2022-08-04T10:02:19.495Z,99560.25
2022-08-04T10:04:49.059Z,99557.50
2022-08-04T10:07:39.789Z,99557.81
2022-08-04T10:10:22.316Z,99566.03
2022-08-04T10:13:09.046Z,99557.81
2022-08-04T10:15:42.470Z,99557.81
2022-08-04T10:18:24.364Z,99561.66
2022-08-04T10:21:11.653Z,99559.72
2022-08-04T10:23:56.337Z,99561.06
2022-08-04T10:26:38.396Z,99560.25
2022-08-04T10:29:12.214Z,99544.50
2022-08-04T10:31:45.816Z,99545.59
2022-08-04T10:34:16.766Z,99553.03
2022-08-04T10:36:55.446Z,99558.47
2022-08-04T10:39:43.232Z,99543.00
2022-08-04T10:42:24.644Z,99540.53
2022-08-04T10:45:00.306Z,99542.97
2022-08-04T10:47:35.550Z,99533.31
2022-08-04T10:50:08.538Z,99535.97
2022-08-04T10:52:41.118Z,99537.31
2022-08-04T10:55:14.566Z,99530.97
2022-08-04T10:57:56.764Z,99535.78
2022-08-04T11:00:27.037Z,99535.19
2022-08-04T11:02:59.949Z,99531.53
2022-08-04T11:05:32.241Z,99529.22
2022-08-04T11:08:07.582Z,99529.13
2022-08-04T11:10:42.580Z,99533.31
2022-08-04T11:13:29.423Z,99534.66
2022-08-04T11:16:04.451Z,99525.03
2022-08-04T11:18:38.426Z,99517.75
2022-08-04T11:21:19.942Z,99518.75
2022-08-04T11:23:53.987Z,99503.75
2022-08-04T11:26:28.680Z,99509.53
2022-08-04T11:29:07.167Z,99520.75
2022-08-04T11:31:38.280Z,99513.94
2022-08-04T11:34:16.728Z,99509.44
2022-08-04T11:36:48.179Z,99505.09
2022-08-04T11:39:20.006Z,99501.50
2022-08-04T11:41:55.361Z,99500.31
2022-08-04T11:44:33.606Z,99493.91
2022-08-04T11:47:09.990Z,99495.81
2022-08-04T11:49:57.294Z,99494.13
2022-08-04T11:52:27.936Z,99490.28
2022-08-04T11:54:57.322Z,99492.97
2022-08-04T11:57:35.786Z,99496.94
2022-08-04T12:00:11.150Z,99482.50
2022-08-04T12:03:12.069Z,99475.47
2022-08-04T12:05:47.337Z,99482.28
2022-08-04T12:08:28.052Z,99484.31
2022-08-04T12:11:19.318Z,99472.63
2022-08-04T12:13:50.920Z,99478.94
2022-08-04T12:16:30.718Z,99475.28
2022-08-04T12:19:01.609Z,99484.31
2022-08-04T12:21:36.562Z,99485.25
2022-08-04T12:24:09.625Z,99476.63
2022-08-04T12:26:41.545Z,99481.41
2022-08-04T12:29:12.815Z,99474.63
2022-08-04T12:31:47.323Z,99476.28
2022-08-04T12:34:19.097Z,99470.25
2022-08-04T12:36:55.913Z,99470.25
2022-08-04T12:39:24.730Z,99467.69
2022-08-04T12:41:59.825Z,99470.06
2022-08-04T12:44:38.045Z,99464.31
2022-08-04T12:47:27.841Z,99467.69
2022-08-04T12:50:04.025Z,99456.16
2022-08-04T12:53:00.451Z,99460.97
2022-08-04T12:55:30.266Z,99460.69
2022-08-04T12:58:03.270Z,99459.88
2022-08-04T13:00:40.683Z,99463.63
2022-08-04T13:03:12.917Z,99455.13
2022-08-04T13:05:42.630Z,99453.91
2022-08-04T13:08:12.364Z,99453.78
2022-08-04T13:10:42.547Z,99442.00
2022-08-04T13:13:16.975Z,99444.25
2022-08-04T13:15:47.509Z,99440.19
2022-08-04T13:18:30.371Z,99442.88
2022-08-04T13:21:20.365Z,99435.81
2022-08-04T13:24:20.426Z,99441.88
2022-08-04T13:26:54.322Z,99424.03
2022-08-04T13:30:00.602Z,99433.81
2022-08-04T13:32:22.485Z,99421.78
2022-08-04T13:34:55.511Z,99415.09
2022-08-04T13:37:27.673Z,99430.09
2022-08-04T13:39:57.080Z,99420.78
2022-08-04T13:42:27.984Z,99413.53
2022-08-04T13:44:59.095Z,99408.47
2022-08-04T13:47:30.721Z,99413.03
2022-08-04T13:50:17.118Z,99407.81
2022-08-04T13:52:46.539Z,99406.97
2022-08-04T13:55:23.407Z,99408.78
2022-08-04T13:57:59.078Z,99412.91
2022-08-04T14:00:29.727Z,99411.78
2022-08-04T14:03:23.809Z,99400.59
2022-08-04T14:06:15.042Z,99388.66
2022-08-04T14:08:55.647Z,99397.13
2022-08-04T14:12:09.303Z,99389.44
2022-08-04T14:14:24.443Z,99398.03
2022-08-04T14:17:01.260Z,99382.97
2022-08-04T14:19:35.961Z,99381.31
2022-08-04T14:22:06.457Z,99397.38
2022-08-04T14:24:34.674Z,99387.25
2022-08-04T14:27:03.043Z,99380.88
2022-08-04T14:29:38.927Z,99371.97
2022-08-04T14:32:14.652Z,99371.44
2022-08-04T14:34:46.205Z,99371.97
2022-08-04T14:37:20.546Z,99369.75
2022-08-04T14:40:17.853Z,99375.16
2022-08-04T14:42:54.577Z,99367.13
2022-08-04T14:45:32.730Z,99369.72
2022-08-04T14:48:01.626Z,99365.28
2022-08-04T14:50:38.487Z,99363.31
2022-08-04T14:53:10.392Z,99359.94
2022-08-04T14:55:40.033Z,99354.94
2022-08-04T14:58:35.263Z,99359.09
2022-08-04T15:01:10.322Z,99361.31
2022-08-04T15:03:50.379Z,99355.75
2022-08-04T15:06:24.001Z,99364.00
2022-08-04T15:08:55.314Z,99363.63
2022-08-04T15:11:24.858Z,99367.69
2022-08-04T15:13:53.725Z,99363.22
2022-08-04T15:16:22.699Z,99363.53
2022-08-04T15:18:52.870Z,99360.69
2022-08-04T15:21:23.960Z,99366.19
2022-08-04T15:23:53.669Z,99365.66
2022-08-04T15:26:29.218Z,99360.06
2022-08-04T15:29:00.601Z,99359.78
2022-08-04T15:32:05.739Z,99358.34
2022-08-04T15:34:18.575Z,99353.25
2022-08-04T15:36:56.801Z,99351.75
2022-08-04T15:39:37.248Z,99351.72
2022-08-04T15:42:20.499Z,99357.50
2022-08-04T15:45:14.338Z,99346.50
2022-08-04T15:47:42.583Z,99346.16
2022-08-04T15:50:28.454Z,99351.03
2022-08-04T15:53:10.329Z,99348.44
2022-08-04T15:55:44.810Z,99340.56
2022-08-04T15:58:17.551Z,99341.72
2022-08-04T16:01:17.912Z,99340.78
2022-08-04T16:03:59.302Z,99343.97
2022-08-04T16:06:49.947Z,99330.34
2022-08-04T16:09:46.149Z,99336.13
2022-08-04T16:12:54.380Z,99331.94
2022-08-04T16:15:41.585Z,99337.31
2022-08-04T16:18:25.304Z,99336.81
2022-08-04T16:20:58.095Z,99333.56
2022-08-04T16:23:56.922Z,99340.53
2022-08-04T16:26:46.103Z,99336.22
2022-08-04T16:29:39.125Z,99336.69
2022-08-04T16:32:19.867Z,99331.81
2022-08-04T16:34:55.104Z,99331.06
2022-08-04T16:37:32.601Z,99333.84
2022-08-04T16:40:37.447Z,99326.06
2022-08-04T16:43:09.352Z,99330.63
2022-08-04T16:45:43.341Z,99320.81
2022-08-04T16:48:13.925Z,99325.13
2022-08-04T16:50:54.853Z,99324.47
2022-08-04T16:54:03.227Z,99321.50
2022-08-04T16:56:15.577Z,99319.53
2022-08-04T16:58:53.751Z,99318.00
2022-08-04T17:01:33.551Z,99317.81
2022-08-04T17:04:08.380Z,99313.78
2022-08-04T17:06:44.375Z,99312.91
2022-08-04T17:09:18.927Z,99319.88
2022-08-04T17:11:48.879Z,99315.66
2022-08-04T17:14:31.338Z,99312.75
2022-08-04T17:17:04.973Z,99309.97
2022-08-04T17:19:39.526Z,99315.16
2022-08-04T17:22:25.445Z,99312.06
2022-08-04T17:25:10.492Z,99313.38
2022-08-04T17:30:31.005Z,99320.91
2022-08-04T17:33:04.621Z,99316.78
2022-08-04T17:35:43.624Z,99319.72
2022-08-04T17:38:16.540Z,99322.91
2022-08-04T17:40:53.397Z,99319.28
2022-08-04T17:44:04.223Z,99321.72
2022-08-04T17:46:45.017Z,99322.41
2022-08-04T17:49:24.768Z,99312.66
2022-08-04T17:52:06.505Z,99319.84
2022-08-04T17:54:44.973Z,99324.72
2022-08-04T17:57:21.931Z,99316.59
2022-08-04T17:59:58.929Z,99319.72
2022-08-04T18:02:34.834Z,99317.75
2022-08-04T18:05:12.135Z,99314.63
2022-08-04T18:08:39.428Z,99319.00
2022-08-04T18:10:51.692Z,99309.50
2022-08-04T18:13:29.122Z,99315.88
2022-08-04T18:16:22.317Z,99329.19
2022-08-04T18:19:10.320Z,99315.63
2022-08-04T18:21:46.080Z,99321.75
2022-08-04T18:24:35.404Z,99320.78
2022-08-04T18:27:30.039Z,99320.19
2022-08-04T18:30:34.056Z,99325.78
2022-08-04T18:33:24.566Z,99326.66
2022-08-04T18:36:32.978Z,99329.56
2022-08-04T18:42:01.871Z,99340.66
2022-08-04T18:44:51.835Z,99331.31
2022-08-04T18:47:58.767Z,99334.41
2022-08-04T18:51:11.324Z,99340.53
2022-08-04T18:53:35.761Z,99328.38
2022-08-04T18:59:10.357Z,99339.50
2022-08-04T19:02:09.318Z,99343.94
2022-08-04T19:04:41.230Z,99350.03
2022-08-04T19:07:29.185Z,99342.31
2022-08-04T19:10:26.495Z,99343.44
2022-08-04T19:13:03.945Z,99340.97
2022-08-04T19:16:16.619Z,99346.50
2022-08-04T19:18:57.498Z,99345.38
2022-08-04T19:22:01.423Z,99348.97
2022-08-04T19:24:35.274Z,99334.94
2022-08-04T19:27:06.944Z,99341.53
2022-08-04T19:29:40.659Z,99351.75
2022-08-04T19:35:03.052Z,99343.44
2022-08-04T19:38:01.654Z,99354.19
2022-08-04T19:40:33.582Z,99351.19
2022-08-04T19:43:14.247Z,99347.31
2022-08-04T19:45:44.965Z,99351.44
2022-08-04T19:48:19.487Z,99358.06
2022-08-04T19:50:48.991Z,99353.31
2022-08-04T19:53:20.090Z,99344.81
2022-08-04T19:56:06.208Z,99350.03
2022-08-04T19:58:34.697Z,99342.31
2022-08-04T20:01:03.457Z,99344.00
2022-08-04T20:04:10.266Z,99348.91
2022-08-04T20:06:24.585Z,99354.38
2022-08-04T20:08:53.254Z,99358.53
2022-08-04T20:11:24.054Z,99358.19
2022-08-04T20:13:54.729Z,99357.09
2022-08-04T20:16:29.467Z,99359.81
2022-08-04T20:21:55.005Z,99361.38
2022-08-04T20:24:38.229Z,99357.53
2022-08-04T20:27:15.519Z,99360.50
2022-08-04T20:29:46.069Z,99363.50
2022-08-04T20:32:20.162Z,99359.69
2022-08-04T20:34:52.988Z,99361.59
2022-08-04T20:37:23.824Z,99362.72
2022-08-04T20:39:55.327Z,99358.56
2022-08-04T20:42:27.186Z,99357.13
2022-08-04T20:45:02.030Z,99353.00
2022-08-04T20:47:35.593Z,99356.88
2022-08-04T20:50:09.067Z,99364.75
2022-08-04T20:52:39.665Z,99365.91
2022-08-04T20:55:10.052Z,99369.19
2022-08-04T20:57:49.743Z,99371.03
2022-08-04T21:03:07.697Z,99367.25
2022-08-04T21:05:37.544Z,99363.69
2022-08-04T21:08:06.029Z,99373.00
2022-08-04T21:10:35.442Z,99365.00
2022-08-04T21:13:03.726Z,99369.97
2022-08-04T21:15:58.842Z,99362.91
2022-08-04T21:18:29.272Z,99368.19
2022-08-04T21:20:59.567Z,99364.69
2022-08-04T21:23:28.873Z,99367.34
2022-08-04T21:26:04.185Z,99370.25
2022-08-04T21:28:32.895Z,99368.47
2022-08-04T21:33:52.184Z,99368.09
2022-08-04T21:36:22.300Z,99368.19
2022-08-04T21:38:55.766Z,99376.34
2022-08-04T21:41:26.949Z,99373.19
2022-08-04T21:43:56.416Z,99367.78
2022-08-04T21:46:27.376Z,99382.22
2022-08-04T21:48:58.550Z,99372.06
2022-08-04T21:51:57.946Z,99378.28
2022-08-04T21:54:18.092Z,99367.72
2022-08-04T21:56:50.625Z,99372.16
2022-08-04T21:59:23.841Z,99373.78
2022-08-04T22:02:01.318Z,99374.94
2022-08-04T22:04:32.483Z,99373.44
2022-08-04T22:10:02.542Z,99366.44
2022-08-04T22:12:33.627Z,99368.66
2022-08-04T22:16:02.664Z,99370.81
2022-08-04T22:17:54.316Z,99368.91
2022-08-04T22:20:27.612Z,99367.19
2022-08-04T22:23:15.432Z,99369.38
2022-08-04T22:25:55.394Z,99378.38
2022-08-04T22:28:27.840Z,99370.31
2022-08-04T22:30:57.960Z,99373.66
2022-08-04T22:33:55.187Z,99365.66
2022-08-04T22:36:16.931Z,99370.63
2022-08-04T22:38:54.970Z,99367.22
2022-08-04T22:41:33.869Z,99370.41
2022-08-04T22:44:02.260Z,99369.53
2022-08-04T22:46:31.397Z,99368.84
2022-08-04T22:49:02.091Z,99372.03
2022-08-04T22:51:30.320Z,99367.16
2022-08-04T22:54:01.719Z,99358.16
2022-08-04T22:56:37.969Z,99357.13
2022-08-04T22:59:11.213Z,99353.88
2022-08-04T23:01:59.154Z,99351.03
2022-08-04T23:04:30.577Z,99355.78
2022-08-04T23:07:05.210Z,99361.91
2022-08-04T23:09:50.163Z,99350.94
2022-08-04T23:12:26.532Z,99360.47
2022-08-04T23:14:56.240Z,99351.31
2022-08-04T23:17:24.832Z,99352.91
2022-08-04T23:19:58.221Z,99352.59
2022-08-04T23:22:41.166Z,99360.63
2022-08-04T23:25:15.201Z,99355.97
2022-08-04T23:27:51.234Z,99357.44
2022-08-04T23:30:24.884Z,99352.97
2022-08-04T23:32:59.168Z,99355.28
2022-08-04T23:35:27.543Z,99348.34
2022-08-04T23:37:56.968Z,99346.38
2022-08-04T23:40:33.317Z,99348.59
2022-08-04T23:43:17.045Z,99349.88
2022-08-04T23:46:06.930Z,99345.13
2022-08-04T23:48:35.416Z,99337.97
2022-08-04T23:51:14.066Z,99339.13
2022-08-04T23:54:02.508Z,99337.63
2022-08-04T23:56:34.378Z,99338.28
2022-08-04T23:59:03.922Z,99337.97
